Terminal Aerodrome Forecast
Issued by NWS Lake Charles, LA

Home | Current Version | Previous Version | Text Only | Print | Product List | Glossary On
Versions: 1 2 3 4 5 6 7 8 9 10 11 12 13 14 15 16 17 18 19 20 21 22
000
FTUS44 KLCH 181735
TAFLCH
TAF
KLCH 181735Z 1818/1918 17012G18KT P6SM VCSH SCT008 BKN015
      TEMPO 1819/1823 4SM SHRA BKN008
     FM190100 15007KT 5SM BR VCSH OVC008
     FM190800 16007KT 3SM -SHRA VCTS OVC005CB=

USA.gov is the U.S. government's official web portal to all federal, state and local government web resources and services.